Flughafen Wetterinformationen

LTBA 060520Z 03017KT 9999 BKN030 BKN080 10/05 Q1021 NOSIG

VATSIM Feed

Card image cap

ATC Buchungen

Es wurde keine Position gebucht

Card image cap

Aktive Flugsicherung

Derzeit sind keine Fluglotsen Online

Blog

Read our latest news and get to know us better.